Skip Navigation Links
NOAA logo - Click to go to the NOAA homepage
NOAA's National Weather Service
Alaska Aviation Weather Unit
  NWS logo - Click to go to the NWS homepage
Left Navbar Graphic     22 AKDT = 06 GMT

   
NOAA is celebrating 200 years of science, service, and stewardship. Visit the NOAA 200th celebration Web site to learn more.
USA.gov is the U.S. Government's official Web portal to all Federal, state and local government Web resources and services.
Facebook
NWS on Facebook

Important Change Regarding the AAWU Web Presence

 

Over the last several months, the AAWU has been working to navigate its webpages to a nationally supported server. Security, as well as other needs, have necessitated the change.  We have been given an extension for the site changeover while we diligently work at addressing feedback received. As of July 14, 2017, aawu.arh.noaa.gov will be discontinued. The new AAWU web address is weather.gov/aawu. It is now live and will run in-parallel with the old site until it is discontinued on July 14, 2017. Please continue to send any feedback or questions regarding the new webpages to nws.ar.aawu.webauthors@noaa.gov.  Thank you for your patience during this time of transition.
AAWU Home :: Display TAF Add Bookmark
TAF PAEN 260537Z 2606/2706 22010KT P6SM SCT008 BKN022 OVC035
      TEMPO 2606/2609 BKN008
     FM260900 20006KT P6SM -RA SCT008 OVC015
      TEMPO 2609/2613 4SM -RA BR BKN008
     FM262100 35009KT P6SM SCT010 OVC020=

PAEN 260044Z 21008KT 8SM OVC004 12/12 A2996= PAEN 260044Z 21008KT 8SM OVC004 12/12 A2996 RMK AO2 T01220122= METAR PAEN 260053Z 23011KT 8SM OVC004 12/12 A2996= PAEN 260133Z 22010KT 10SM OVC005 12/12 A2996= SPECI PAEN 260133Z 22010KT 10SM OVC005 12/12 A2996 RMK AO2 T01220117= METAR PAEN 260153Z 22011KT 10SM OVC005 12/12 A2995= METAR PAEN 260253Z 22011KT 10SM OVC007 13/12 A2994= METAR PAEN 260353Z 21011KT 10SM OVC007 12/11 A2994= PAEN 260431Z 23009KT 10SM SCT008 BKN022 OVC031 12/11 A2993= SPECI PAEN 260431Z 23009KT 10SM SCT008 BKN022 OVC031 12/11 A2993 RMK AO2 T01220111= METAR PAEN 260453Z 23009KT 10SM SCT008 BKN022 OVC031 12/11 A2992= METAR PAEN 260553Z 21012KT 10SM OVC021 13/11 A2992=
 Alaska TAF Map

NOAA's National Weather Service
Alaska Aviation Weather Unit
6930 Sand Lake Road
Anchorage, AK 99502-1845
Disclaimer
Credits
Glossary
Privacy Policy
About Us
Career Opportunities
Contact AAWU Internet Services Site last modified: April, 17th 2012